sensor_id;sensor_type;location;lat;lon;timestamp;pressure;altitude;pressure_sealevel;temperature;humidity
57050;BME280;42935;50.966;16.992;2023-05-19T00:03:07;102534.64;;;8.97;100.00
57050;BME280;42935;50.966;16.992;2023-05-19T00:06:31;102536.79;;;8.99;100.00
57050;BME280;42935;50.966;16.992;2023-05-19T00:09:49;102532.69;;;8.92;100.00
57050;BME280;42935;50.966;16.992;2023-05-19T00:13:09;102536.15;;;8.86;100.00
57050;BME280;42935;50.966;16.992;2023-05-19T00:16:28;102539.70;;;8.84;100.00
57050;BME280;42935;50.966;16.992;2023-05-19T00:19:51;102538.74;;;8.79;100.00
57050;BME280;42935;50.966;16.992;2023-05-19T00:23:15;102544.13;;;8.60;100.00
57050;BME280;42935;50.966;16.992;2023-05-19T00:26:34;102544.69;;;8.14;100.00
57050;BME280;42935;50.966;16.992;2023-05-19T00:29:58;102547.02;;;7.82;100.00
57050;BME280;42935;50.966;16.992;2023-05-19T00:33:14;102547.90;;;7.79;100.00
57050;BME280;42935;50.966;16.992;2023-05-19T00:36:43;102531.02;;;7.94;100.00
57050;BME280;42935;50.966;16.992;2023-05-19T00:40:01;102541.21;;;8.10;100.00
57050;BME280;42935;50.966;16.992;2023-05-19T00:43:26;102532.23;;;8.07;100.00
57050;BME280;42935;50.966;16.992;2023-05-19T00:46:44;102538.94;;;8.23;100.00
57050;BME280;42935;50.966;16.992;2023-05-19T00:50:00;102540.27;;;8.16;100.00
57050;BME280;42935;50.966;16.992;2023-05-19T00:53:18;102530.59;;;8.07;100.00
57050;BME280;42935;50.966;16.992;2023-05-19T00:56:38;102534.87;;;8.13;100.00
57050;BME280;42935;50.966;16.992;2023-05-19T00:59:58;102537.06;;;8.19;100.00
57050;BME280;42935;50.966;16.992;2023-05-19T01:03:20;102539.41;;;8.18;100.00
57050;BME280;42935;50.966;16.992;2023-05-19T01:06:49;102539.44;;;8.19;100.00
57050;BME280;42935;50.966;16.992;2023-05-19T01:10:15;102539.13;;;8.20;100.00
57050;BME280;42935;50.966;16.992;2023-05-19T01:13:35;102536.22;;;8.21;100.00
57050;BME280;42935;50.966;16.992;2023-05-19T01:20:34;102533.77;;;8.25;100.00
57050;BME280;42935;50.966;16.992;2023-05-19T01:27:41;102537.32;;;8.29;100.00
57050;BME280;42935;50.966;16.992;2023-05-19T01:31:00;102541.95;;;8.36;100.00
57050;BME280;42935;50.966;16.992;2023-05-19T01:34:20;102539.22;;;8.33;100.00
57050;BME280;42935;50.966;16.992;2023-05-19T01:37:43;102531.94;;;8.24;100.00
57050;BME280;42935;50.966;16.992;2023-05-19T01:41:05;102543.84;;;8.29;100.00
57050;BME280;42935;50.966;16.992;2023-05-19T01:44:28;102542.37;;;8.23;100.00
57050;BME280;42935;50.966;16.992;2023-05-19T01:47:55;102528.28;;;8.19;100.00
57050;BME280;42935;50.966;16.992;2023-05-19T01:51:16;102539.27;;;8.30;100.00
57050;BME280;42935;50.966;16.992;2023-05-19T01:54:39;102539.11;;;8.31;100.00
57050;BME280;42935;50.966;16.992;2023-05-19T02:01:36;102539.16;;;8.33;100.00
57050;BME280;42935;50.966;16.992;2023-05-19T02:05:08;102541.11;;;8.41;100.00
57050;BME280;42935;50.966;16.992;2023-05-19T02:08:41;102539.76;;;8.37;100.00
57050;BME280;42935;50.966;16.992;2023-05-19T02:15:40;102530.98;;;8.40;100.00
57050;BME280;42935;50.966;16.992;2023-05-19T02:19:03;102533.02;;;8.41;100.00
57050;BME280;42935;50.966;16.992;2023-05-19T02:22:21;102531.82;;;8.39;100.00
57050;BME280;42935;50.966;16.992;2023-05-19T02:25:42;102527.77;;;8.35;100.00
57050;BME280;42935;50.966;16.992;2023-05-19T02:29:00;102524.50;;;8.38;100.00
57050;BME280;42935;50.966;16.992;2023-05-19T02:32:24;102529.95;;;8.44;100.00
57050;BME280;42935;50.966;16.992;2023-05-19T02:35:41;102524.77;;;8.53;100.00
57050;BME280;42935;50.966;16.992;2023-05-19T02:38:57;102524.66;;;8.51;100.00
57050;BME280;42935;50.966;16.992;2023-05-19T02:42:20;102517.45;;;8.55;100.00
57050;BME280;42935;50.966;16.992;2023-05-19T02:45:36;102518.57;;;8.58;100.00
57050;BME280;42935;50.966;16.992;2023-05-19T02:48:57;102507.60;;;8.51;100.00
57050;BME280;42935;50.966;16.992;2023-05-19T02:52:17;102518.34;;;8.56;100.00
57050;BME280;42935;50.966;16.992;2023-05-19T02:55:38;102515.87;;;8.57;100.00
57050;BME280;42935;50.966;16.992;2023-05-19T02:58:57;102527.52;;;8.45;100.00
57050;BME280;42935;50.966;16.992;2023-05-19T03:02:26;102527.13;;;8.43;100.00
57050;BME280;42935;50.966;16.992;2023-05-19T03:05:44;102521.24;;;8.46;100.00
57050;BME280;42935;50.966;16.992;2023-05-19T03:09:05;102524.87;;;8.63;100.00
57050;BME280;42935;50.966;16.992;2023-05-19T03:12:26;102523.26;;;8.54;100.00
57050;BME280;42935;50.966;16.992;2023-05-19T03:15:46;102531.94;;;8.58;100.00
57050;BME280;42935;50.966;16.992;2023-05-19T03:19:13;102521.59;;;8.57;100.00
57050;BME280;42935;50.966;16.992;2023-05-19T03:22:47;102518.60;;;8.63;100.00
57050;BME280;42935;50.966;16.992;2023-05-19T03:26:12;102531.59;;;8.74;100.00
57050;BME280;42935;50.966;16.992;2023-05-19T03:29:32;102529.93;;;8.83;100.00
57050;BME280;42935;50.966;16.992;2023-05-19T03:32:54;102533.07;;;8.76;100.00
57050;BME280;42935;50.966;16.992;2023-05-19T03:36:14;102524.43;;;8.72;100.00
57050;BME280;42935;50.966;16.992;2023-05-19T03:39:32;102523.13;;;8.75;100.00
57050;BME280;42935;50.966;16.992;2023-05-19T03:42:53;102523.98;;;8.92;100.00
57050;BME280;42935;50.966;16.992;2023-05-19T03:46:17;102517.51;;;8.86;100.00
57050;BME280;42935;50.966;16.992;2023-05-19T03:49:33;102521.42;;;8.94;100.00
57050;BME280;42935;50.966;16.992;2023-05-19T03:52:54;102514.13;;;8.85;100.00
57050;BME280;42935;50.966;16.992;2023-05-19T03:56:14;102510.95;;;9.00;100.00
57050;BME280;42935;50.966;16.992;2023-05-19T03:59:41;102515.66;;;9.02;100.00
57050;BME280;42935;50.966;16.992;2023-05-19T04:03:07;102519.80;;;9.14;100.00
57050;BME280;42935;50.966;16.992;2023-05-19T04:06:24;102524.72;;;9.08;100.00
57050;BME280;42935;50.966;16.992;2023-05-19T04:09:45;102516.59;;;8.94;100.00
57050;BME280;42935;50.966;16.992;2023-05-19T04:13:06;102513.91;;;8.92;100.00
57050;BME280;42935;50.966;16.992;2023-05-19T04:16:27;102518.23;;;8.86;100.00
57050;BME280;42935;50.966;16.992;2023-05-19T04:19:48;102515.87;;;8.83;100.00
57050;BME280;42935;50.966;16.992;2023-05-19T04:23:09;102516.76;;;8.84;100.00
57050;BME280;42935;50.966;16.992;2023-05-19T04:26:29;102519.35;;;8.88;100.00
57050;BME280;42935;50.966;16.992;2023-05-19T04:29:53;102526.16;;;8.92;100.00
57050;BME280;42935;50.966;16.992;2023-05-19T04:33:14;102526.55;;;8.94;100.00
57050;BME280;42935;50.966;16.992;2023-05-19T04:36:33;102530.53;;;9.04;100.00
57050;BME280;42935;50.966;16.992;2023-05-19T04:39:52;102528.22;;;8.89;100.00
57050;BME280;42935;50.966;16.992;2023-05-19T04:43:17;102523.46;;;8.88;100.00
57050;BME280;42935;50.966;16.992;2023-05-19T04:46:39;102528.22;;;9.11;100.00
57050;BME280;42935;50.966;16.992;2023-05-19T04:50:06;102513.63;;;8.90;100.00
57050;BME280;42935;50.966;16.992;2023-05-19T04:53:27;102529.25;;;8.88;100.00
57050;BME280;42935;50.966;16.992;2023-05-19T04:56:48;102503.04;;;8.75;100.00
57050;BME280;42935;50.966;16.992;2023-05-19T05:00:13;102533.50;;;9.06;100.00
57050;BME280;42935;50.966;16.992;2023-05-19T05:03:30;102528.50;;;9.13;100.00
57050;BME280;42935;50.966;16.992;2023-05-19T05:06:52;102533.57;;;9.23;100.00
57050;BME280;42935;50.966;16.992;2023-05-19T05:10:12;102538.46;;;9.39;100.00
57050;BME280;42935;50.966;16.992;2023-05-19T05:13:34;102523.59;;;9.32;100.00
57050;BME280;42935;50.966;16.992;2023-05-19T05:16:56;102543.77;;;9.23;100.00
57050;BME280;42935;50.966;16.992;2023-05-19T05:20:19;102536.81;;;9.45;100.00
57050;BME280;42935;50.966;16.992;2023-05-19T05:23:36;102532.12;;;9.32;100.00
57050;BME280;42935;50.966;16.992;2023-05-19T05:26:56;102535.66;;;9.50;100.00
57050;BME280;42935;50.966;16.992;2023-05-19T05:30:18;102535.12;;;9.45;100.00
57050;BME280;42935;50.966;16.992;2023-05-19T05:33:38;102534.89;;;9.64;100.00
57050;BME280;42935;50.966;16.992;2023-05-19T05:36:56;102533.20;;;9.66;100.00
57050;BME280;42935;50.966;16.992;2023-05-19T05:40:18;102533.92;;;9.65;100.00
57050;BME280;42935;50.966;16.992;2023-05-19T05:43:38;102533.27;;;9.87;100.00
57050;BME280;42935;50.966;16.992;2023-05-19T05:47:00;102537.50;;;9.82;100.00
57050;BME280;42935;50.966;16.992;2023-05-19T05:50:19;102532.05;;;9.63;100.00
57050;BME280;42935;50.966;16.992;2023-05-19T05:53:40;102541.84;;;9.64;100.00
57050;BME280;42935;50.966;16.992;2023-05-19T05:57:01;102541.81;;;9.64;100.00
57050;BME280;42935;50.966;16.992;2023-05-19T06:00:23;102532.85;;;9.49;100.00
57050;BME280;42935;50.966;16.992;2023-05-19T06:03:45;102545.91;;;9.66;100.00
57050;BME280;42935;50.966;16.992;2023-05-19T06:07:07;102546.75;;;9.79;100.00
57050;BME280;42935;50.966;16.992;2023-05-19T06:10:29;102548.81;;;9.86;100.00
57050;BME280;42935;50.966;16.992;2023-05-19T06:13:50;102551.91;;;9.79;100.00
57050;BME280;42935;50.966;16.992;2023-05-19T06:17:09;102561.54;;;9.77;100.00
57050;BME280;42935;50.966;16.992;2023-05-19T06:20:29;102548.67;;;9.78;100.00
57050;BME280;42935;50.966;16.992;2023-05-19T06:23:51;102555.23;;;9.52;100.00
57050;BME280;42935;50.966;16.992;2023-05-19T06:27:12;102557.88;;;9.62;100.00
57050;BME280;42935;50.966;16.992;2023-05-19T06:30:32;102559.53;;;9.61;100.00
57050;BME280;42935;50.966;16.992;2023-05-19T06:33:52;102556.84;;;9.74;100.00
57050;BME280;42935;50.966;16.992;2023-05-19T06:37:12;102561.51;;;9.83;100.00
57050;BME280;42935;50.966;16.992;2023-05-19T06:40:36;102564.52;;;9.71;100.00
57050;BME280;42935;50.966;16.992;2023-05-19T06:43:57;102554.31;;;9.84;100.00
57050;BME280;42935;50.966;16.992;2023-05-19T06:47:24;102561.44;;;9.84;100.00
57050;BME280;42935;50.966;16.992;2023-05-19T06:50:48;102560.56;;;9.99;100.00
57050;BME280;42935;50.966;16.992;2023-05-19T06:54:05;102561.67;;;10.07;100.00
57050;BME280;42935;50.966;16.992;2023-05-19T06:57:32;102565.19;;;10.04;100.00
57050;BME280;42935;50.966;16.992;2023-05-19T07:00:53;102556.82;;;9.96;100.00
57050;BME280;42935;50.966;16.992;2023-05-19T07:04:15;102567.23;;;10.00;100.00
57050;BME280;42935;50.966;16.992;2023-05-19T07:07:35;102572.83;;;9.90;100.00
57050;BME280;42935;50.966;16.992;2023-05-19T07:10:52;102570.23;;;9.75;100.00
57050;BME280;42935;50.966;16.992;2023-05-19T07:14:12;102572.48;;;9.74;100.00
57050;BME280;42935;50.966;16.992;2023-05-19T07:17:32;102570.23;;;9.70;100.00
57050;BME280;42935;50.966;16.992;2023-05-19T07:20:51;102578.45;;;9.68;100.00
57050;BME280;42935;50.966;16.992;2023-05-19T07:24:09;102583.72;;;9.46;100.00
57050;BME280;42935;50.966;16.992;2023-05-19T07:27:26;102579.84;;;9.54;100.00
57050;BME280;42935;50.966;16.992;2023-05-19T07:30:43;102582.60;;;9.64;100.00
57050;BME280;42935;50.966;16.992;2023-05-19T07:34:03;102582.53;;;9.62;100.00
57050;BME280;42935;50.966;16.992;2023-05-19T07:37:21;102580.09;;;9.57;100.00
57050;BME280;42935;50.966;16.992;2023-05-19T07:40:41;102576.52;;;9.51;100.00
57050;BME280;42935;50.966;16.992;2023-05-19T07:44:01;102556.51;;;9.55;100.00
57050;BME280;42935;50.966;16.992;2023-05-19T07:47:25;102568.23;;;9.62;100.00
57050;BME280;42935;50.966;16.992;2023-05-19T07:50:48;102578.22;;;9.83;100.00
57050;BME280;42935;50.966;16.992;2023-05-19T07:54:08;102575.30;;;10.02;100.00
57050;BME280;42935;50.966;16.992;2023-05-19T07:57:28;102570.86;;;9.87;100.00
57050;BME280;42935;50.966;16.992;2023-05-19T08:00:47;102580.23;;;9.90;100.00
57050;BME280;42935;50.966;16.992;2023-05-19T08:04:14;102570.27;;;9.91;100.00
57050;BME280;42935;50.966;16.992;2023-05-19T08:07:34;102579.93;;;10.02;100.00
57050;BME280;42935;50.966;16.992;2023-05-19T08:10:52;102577.75;;;10.18;100.00
57050;BME280;42935;50.966;16.992;2023-05-19T08:14:18;102581.18;;;10.26;100.00
57050;BME280;42935;50.966;16.992;2023-05-19T08:17:38;102573.12;;;10.34;100.00
57050;BME280;42935;50.966;16.992;2023-05-19T08:20:59;102565.05;;;10.82;100.00
57050;BME280;42935;50.966;16.992;2023-05-19T08:24:19;102565.76;;;11.21;100.00
57050;BME280;42935;50.966;16.992;2023-05-19T08:27:40;102566.43;;;11.14;100.00
57050;BME280;42935;50.966;16.992;2023-05-19T08:31:00;102562.94;;;11.58;100.00
57050;BME280;42935;50.966;16.992;2023-05-19T08:34:21;102563.48;;;11.68;100.00
57050;BME280;42935;50.966;16.992;2023-05-19T08:37:44;102559.20;;;11.61;100.00
57050;BME280;42935;50.966;16.992;2023-05-19T08:41:06;102571.23;;;11.51;100.00
57050;BME280;42935;50.966;16.992;2023-05-19T08:44:27;102569.29;;;11.58;100.00
57050;BME280;42935;50.966;16.992;2023-05-19T08:47:50;102568.31;;;11.99;100.00
57050;BME280;42935;50.966;16.992;2023-05-19T08:51:13;102566.53;;;12.03;100.00
57050;BME280;42935;50.966;16.992;2023-05-19T08:58:10;102560.20;;;12.42;100.00
57050;BME280;42935;50.966;16.992;2023-05-19T09:01:31;102557.77;;;12.15;100.00
57050;BME280;42935;50.966;16.992;2023-05-19T09:04:53;102549.52;;;12.00;100.00
57050;BME280;42935;50.966;16.992;2023-05-19T09:08:13;102539.38;;;11.97;100.00
57050;BME280;42935;50.966;16.992;2023-05-19T09:11:34;102555.77;;;12.50;100.00
57050;BME280;42935;50.966;16.992;2023-05-19T09:14:56;102554.98;;;12.25;100.00
57050;BME280;42935;50.966;16.992;2023-05-19T09:18:14;102557.20;;;12.75;100.00
57050;BME280;42935;50.966;16.992;2023-05-19T09:21:34;102546.27;;;12.56;100.00
57050;BME280;42935;50.966;16.992;2023-05-19T09:24:55;102547.12;;;13.23;89.12
57050;BME280;42935;50.966;16.992;2023-05-19T09:31:51;102547.09;;;13.48;89.15
57050;BME280;42935;50.966;16.992;2023-05-19T09:35:10;102544.64;;;13.27;90.41
57050;BME280;42935;50.966;16.992;2023-05-19T09:38:35;102535.66;;;12.31;96.85
57050;BME280;42935;50.966;16.992;2023-05-19T09:41:54;102528.15;;;12.79;95.01
57050;BME280;42935;50.966;16.992;2023-05-19T09:45:19;102535.50;;;13.04;93.91
57050;BME280;42935;50.966;16.992;2023-05-19T09:48:38;102523.20;;;12.94;91.13
57050;BME280;42935;50.966;16.992;2023-05-19T09:51:55;102523.73;;;12.89;91.24
57050;BME280;42935;50.966;16.992;2023-05-19T09:55:14;102530.69;;;12.32;100.00
57050;BME280;42935;50.966;16.992;2023-05-19T09:58:41;102528.70;;;12.64;100.00
57050;BME280;42935;50.966;16.992;2023-05-19T10:01:59;102522.64;;;12.82;99.29
57050;BME280;42935;50.966;16.992;2023-05-19T10:05:17;102518.90;;;12.81;95.89
57050;BME280;42935;50.966;16.992;2023-05-19T10:08:41;102513.49;;;12.92;96.00
57050;BME280;42935;50.966;16.992;2023-05-19T10:12:33;102522.62;;;12.57;99.92
57050;BME280;42935;50.966;16.992;2023-05-19T10:15:54;102504.54;;;12.67;94.28
57050;BME280;42935;50.966;16.992;2023-05-19T10:19:13;102513.93;;;12.41;99.74
57050;BME280;42935;50.966;16.992;2023-05-19T10:22:32;102507.66;;;12.80;100.00
57050;BME280;42935;50.966;16.992;2023-05-19T10:25:51;102507.66;;;13.10;100.00
57050;BME280;42935;50.966;16.992;2023-05-19T10:29:18;102500.66;;;13.03;95.77
57050;BME280;42935;50.966;16.992;2023-05-19T10:32:42;102512.20;;;12.55;100.00
57050;BME280;42935;50.966;16.992;2023-05-19T10:39:35;102517.31;;;12.84;100.00
57050;BME280;42935;50.966;16.992;2023-05-19T10:43:05;102509.51;;;12.59;100.00
57050;BME280;42935;50.966;16.992;2023-05-19T10:46:29;102515.86;;;12.86;100.00
57050;BME280;42935;50.966;16.992;2023-05-19T10:49:54;102525.91;;;12.14;100.00
57050;BME280;42935;50.966;16.992;2023-05-19T10:53:19;102528.47;;;12.48;100.00
57050;BME280;42935;50.966;16.992;2023-05-19T10:56:43;102524.73;;;12.79;100.00
57050;BME280;42935;50.966;16.992;2023-05-19T11:03:53;102520.44;;;13.05;97.12
57050;BME280;42935;50.966;16.992;2023-05-19T11:07:21;102512.48;;;13.39;94.56
57050;BME280;42935;50.966;16.992;2023-05-19T11:10:43;102507.68;;;13.32;96.61
57050;BME280;42935;50.966;16.992;2023-05-19T11:14:37;102516.58;;;13.07;99.71
57050;BME280;42935;50.966;16.992;2023-05-19T11:17:47;102513.77;;;12.82;100.00
57050;BME280;42935;50.966;16.992;2023-05-19T11:21:09;102516.34;;;13.07;99.59
57050;BME280;42935;50.966;16.992;2023-05-19T11:24:36;102515.27;;;12.97;99.20
57050;BME280;42935;50.966;16.992;2023-05-19T11:27:56;102514.05;;;13.27;98.48
57050;BME280;42935;50.966;16.992;2023-05-19T11:31:18;102515.63;;;13.19;95.54
57050;BME280;42935;50.966;16.992;2023-05-19T11:34:41;102507.88;;;12.37;99.93
57050;BME280;42935;50.966;16.992;2023-05-19T11:38:05;102500.54;;;12.26;100.00
57050;BME280;42935;50.966;16.992;2023-05-19T11:41:30;102516.92;;;12.44;100.00
57050;BME280;42935;50.966;16.992;2023-05-19T11:44:56;102513.89;;;12.55;100.00
57050;BME280;42935;50.966;16.992;2023-05-19T11:48:14;102513.80;;;12.76;100.00
57050;BME280;42935;50.966;16.992;2023-05-19T11:51:36;102494.74;;;12.97;100.00
57050;BME280;42935;50.966;16.992;2023-05-19T11:54:53;102506.59;;;13.18;100.00
57050;BME280;42935;50.966;16.992;2023-05-19T11:58:15;102495.41;;;12.75;100.00
57050;BME280;42935;50.966;16.992;2023-05-19T12:01:35;102497.17;;;13.04;100.00
57050;BME280;42935;50.966;16.992;2023-05-19T12:05:00;102503.30;;;13.06;100.00
57050;BME280;42935;50.966;16.992;2023-05-19T12:08:24;102506.34;;;13.12;100.00
57050;BME280;42935;50.966;16.992;2023-05-19T12:11:43;102509.91;;;12.74;100.00
57050;BME280;42935;50.966;16.992;2023-05-19T12:15:07;102497.35;;;12.89;100.00
57050;BME280;42935;50.966;16.992;2023-05-19T12:18:36;102507.55;;;13.10;99.97
57050;BME280;42935;50.966;16.992;2023-05-19T12:21:57;102511.11;;;13.03;100.00
57050;BME280;42935;50.966;16.992;2023-05-19T12:25:18;102504.38;;;12.83;99.26
57050;BME280;42935;50.966;16.992;2023-05-19T12:28:44;102510.12;;;12.93;100.00
57050;BME280;42935;50.966;16.992;2023-05-19T12:32:07;102511.59;;;13.00;99.56
57050;BME280;42935;50.966;16.992;2023-05-19T12:35:30;102514.21;;;12.60;100.00
57050;BME280;42935;50.966;16.992;2023-05-19T12:38:56;102509.88;;;12.49;100.00
57050;BME280;42935;50.966;16.992;2023-05-19T12:42:16;102503.81;;;12.27;100.00
57050;BME280;42935;50.966;16.992;2023-05-19T12:45:38;102514.04;;;12.54;100.00
57050;BME280;42935;50.966;16.992;2023-05-19T12:49:00;102504.77;;;12.28;100.00
57050;BME280;42935;50.966;16.992;2023-05-19T12:52:21;102503.20;;;12.21;100.00
57050;BME280;42935;50.966;16.992;2023-05-19T12:55:43;102513.83;;;12.36;100.00
57050;BME280;42935;50.966;16.992;2023-05-19T12:59:04;102495.95;;;12.44;100.00
57050;BME280;42935;50.966;16.992;2023-05-19T13:02:24;102515.54;;;12.55;100.00
57050;BME280;42935;50.966;16.992;2023-05-19T13:05:50;102512.06;;;12.62;100.00
57050;BME280;42935;50.966;16.992;2023-05-19T13:09:16;102510.07;;;12.64;100.00
57050;BME280;42935;50.966;16.992;2023-05-19T13:12:38;102508.38;;;12.65;100.00
57050;BME280;42935;50.966;16.992;2023-05-19T13:15:59;102498.62;;;12.73;100.00
57050;BME280;42935;50.966;16.992;2023-05-19T13:19:20;102502.39;;;13.01;100.00
57050;BME280;42935;50.966;16.992;2023-05-19T13:22:37;102497.05;;;13.07;100.00
57050;BME280;42935;50.966;16.992;2023-05-19T13:26:00;102500.63;;;12.96;100.00
57050;BME280;42935;50.966;16.992;2023-05-19T13:29:25;102502.00;;;13.21;100.00
57050;BME280;42935;50.966;16.992;2023-05-19T13:32:46;102495.88;;;13.25;98.54
57050;BME280;42935;50.966;16.992;2023-05-19T13:36:13;102491.92;;;13.14;99.83
57050;BME280;42935;50.966;16.992;2023-05-19T13:39:41;102486.65;;;13.21;100.00
57050;BME280;42935;50.966;16.992;2023-05-19T13:43:06;102495.31;;;13.43;100.00
57050;BME280;42935;50.966;16.992;2023-05-19T13:46:26;102496.70;;;13.49;98.64
57050;BME280;42935;50.966;16.992;2023-05-19T13:49:46;102496.86;;;13.60;97.44
57050;BME280;42935;50.966;16.992;2023-05-19T13:53:11;102496.40;;;13.44;99.22
57050;BME280;42935;50.966;16.992;2023-05-19T13:56:30;102495.30;;;13.62;98.74
57050;BME280;42935;50.966;16.992;2023-05-19T13:59:54;102489.36;;;13.56;99.43
57050;BME280;42935;50.966;16.992;2023-05-19T14:03:15;102489.56;;;13.64;100.00
57050;BME280;42935;50.966;16.992;2023-05-19T14:06:33;102480.17;;;13.67;99.00
57050;BME280;42935;50.966;16.992;2023-05-19T14:10:00;102483.24;;;13.63;97.30
57050;BME280;42935;50.966;16.992;2023-05-19T14:13:21;102487.89;;;13.89;94.71
57050;BME280;42935;50.966;16.992;2023-05-19T14:16:49;102474.91;;;14.06;92.10
57050;BME280;42935;50.966;16.992;2023-05-19T14:20:13;102487.65;;;14.20;93.84
57050;BME280;42935;50.966;16.992;2023-05-19T14:23:41;102492.88;;;13.35;99.02
57050;BME280;42935;50.966;16.992;2023-05-19T14:27:09;102480.12;;;13.47;99.97
57050;BME280;42935;50.966;16.992;2023-05-19T14:30:38;102485.39;;;13.20;100.00
57050;BME280;42935;50.966;16.992;2023-05-19T14:34:06;102484.13;;;13.53;100.00
57050;BME280;42935;50.966;16.992;2023-05-19T14:37:26;102473.92;;;13.96;98.10
57050;BME280;42935;50.966;16.992;2023-05-19T14:40:54;102466.63;;;14.03;94.77
57050;BME280;42935;50.966;16.992;2023-05-19T14:44:23;102476.33;;;14.16;94.54
57050;BME280;42935;50.966;16.992;2023-05-19T14:47:43;102466.48;;;14.31;90.31
57050;BME280;42935;50.966;16.992;2023-05-19T14:51:00;102472.05;;;14.34;88.88
57050;BME280;42935;50.966;16.992;2023-05-19T14:54:28;102473.56;;;14.35;90.10
57050;BME280;42935;50.966;16.992;2023-05-19T14:57:53;102466.06;;;13.80;97.99
57050;BME280;42935;50.966;16.992;2023-05-19T15:01:21;102471.45;;;13.78;100.00
57050;BME280;42935;50.966;16.992;2023-05-19T15:04:41;102475.71;;;13.20;100.00
57050;BME280;42935;50.966;16.992;2023-05-19T15:08:09;102474.18;;;13.82;98.61
57050;BME280;42935;50.966;16.992;2023-05-19T15:11:34;102473.12;;;13.99;94.50
57050;BME280;42935;50.966;16.992;2023-05-19T15:14:58;102469.23;;;14.09;96.41
57050;BME280;42935;50.966;16.992;2023-05-19T15:18:27;102463.30;;;13.80;96.73
57050;BME280;42935;50.966;16.992;2023-05-19T15:23:28;102465.92;;;13.74;99.85
57050;BME280;42935;50.966;16.992;2023-05-19T15:26:56;102476.86;;;13.08;100.00
57050;BME280;42935;50.966;16.992;2023-05-19T15:30:20;102467.56;;;13.09;100.00
57050;BME280;42935;50.966;16.992;2023-05-19T15:33:40;102480.32;;;13.07;100.00
57050;BME280;42935;50.966;16.992;2023-05-19T15:37:03;102463.34;;;13.08;100.00
57050;BME280;42935;50.966;16.992;2023-05-19T15:40:51;102474.09;;;12.98;100.00
57050;BME280;42935;50.966;16.992;2023-05-19T15:44:15;102473.62;;;12.92;100.00
57050;BME280;42935;50.966;16.992;2023-05-19T15:47:40;102470.35;;;12.93;100.00
57050;BME280;42935;50.966;16.992;2023-05-19T15:50:58;102469.58;;;12.92;100.00
57050;BME280;42935;50.966;16.992;2023-05-19T15:54:19;102457.63;;;13.09;100.00
57050;BME280;42935;50.966;16.992;2023-05-19T15:57:37;102463.35;;;13.15;100.00
57050;BME280;42935;50.966;16.992;2023-05-19T16:01:05;102465.32;;;13.12;100.00
57050;BME280;42935;50.966;16.992;2023-05-19T16:04:36;102455.77;;;13.09;100.00
57050;BME280;42935;50.966;16.992;2023-05-19T16:07:57;102465.08;;;13.13;100.00
57050;BME280;42935;50.966;16.992;2023-05-19T16:11:22;102468.13;;;13.23;100.00
57050;BME280;42935;50.966;16.992;2023-05-19T16:14:47;102464.37;;;13.20;100.00
57050;BME280;42935;50.966;16.992;2023-05-19T16:18:11;102463.65;;;13.12;100.00
57050;BME280;42935;50.966;16.992;2023-05-19T16:21:40;102464.04;;;13.07;100.00
57050;BME280;42935;50.966;16.992;2023-05-19T16:25:05;102465.02;;;13.06;100.00
57050;BME280;42935;50.966;16.992;2023-05-19T16:28:29;102467.21;;;12.90;100.00
57050;BME280;42935;50.966;16.992;2023-05-19T16:31:58;102457.35;;;12.76;100.00
57050;BME280;42935;50.966;16.992;2023-05-19T16:35:26;102472.23;;;12.74;100.00
57050;BME280;42935;50.966;16.992;2023-05-19T16:38:52;102466.75;;;12.59;100.00
57050;BME280;42935;50.966;16.992;2023-05-19T16:42:16;102455.38;;;12.49;100.00
57050;BME280;42935;50.966;16.992;2023-05-19T16:45:41;102463.38;;;12.64;100.00
57050;BME280;42935;50.966;16.992;2023-05-19T16:49:03;102453.95;;;12.72;100.00
57050;BME280;42935;50.966;16.992;2023-05-19T16:52:28;102460.89;;;12.39;100.00
57050;BME280;42935;50.966;16.992;2023-05-19T16:55:52;102462.26;;;12.41;100.00
57050;BME280;42935;50.966;16.992;2023-05-19T16:59:14;102460.80;;;12.30;100.00
57050;BME280;42935;50.966;16.992;2023-05-19T17:02:39;102464.60;;;12.43;100.00
57050;BME280;42935;50.966;16.992;2023-05-19T17:05:59;102464.50;;;12.45;100.00
57050;BME280;42935;50.966;16.992;2023-05-19T17:09:20;102467.53;;;12.60;100.00
57050;BME280;42935;50.966;16.992;2023-05-19T17:12:52;102467.56;;;12.56;100.00
57050;BME280;42935;50.966;16.992;2023-05-19T17:16:16;102468.06;;;12.47;100.00
57050;BME280;42935;50.966;16.992;2023-05-19T17:19:36;102465.66;;;12.62;100.00
57050;BME280;42935;50.966;16.992;2023-05-19T17:23:01;102468.12;;;12.44;100.00
57050;BME280;42935;50.966;16.992;2023-05-19T17:26:21;102465.98;;;12.63;100.00
57050;BME280;42935;50.966;16.992;2023-05-19T17:29:42;102467.92;;;12.58;100.00
57050;BME280;42935;50.966;16.992;2023-05-19T17:33:02;102470.55;;;12.60;100.00
57050;BME280;42935;50.966;16.992;2023-05-19T17:36:23;102478.00;;;12.54;100.00
57050;BME280;42935;50.966;16.992;2023-05-19T17:39:48;102479.59;;;12.24;100.00
57050;BME280;42935;50.966;16.992;2023-05-19T17:43:15;102476.82;;;12.41;100.00
57050;BME280;42935;50.966;16.992;2023-05-19T17:46:42;102466.34;;;12.56;100.00
57050;BME280;42935;50.966;16.992;2023-05-19T17:50:02;102477.22;;;12.74;100.00